sensor_id;sensor_type;location;lat;lon;timestamp;P1;durP1;ratioP1;P2;durP2;ratioP2
15063;SDS011;7631;52.088;5.088;2023-07-29T00:01:30;1.17;;;1.07;;
15063;SDS011;7631;52.088;5.088;2023-07-29T00:03:55;1.23;;;1.13;;
15063;SDS011;7631;52.088;5.088;2023-07-29T00:06:21;1.20;;;1.10;;
15063;SDS011;7631;52.088;5.088;2023-07-29T00:08:46;1.07;;;0.87;;
15063;SDS011;7631;52.088;5.088;2023-07-29T00:11:11;1.20;;;0.90;;
15063;SDS011;7631;52.088;5.088;2023-07-29T00:13:36;1.15;;;1.05;;
15063;SDS011;7631;52.088;5.088;2023-07-29T00:16:01;1.13;;;1.03;;
15063;SDS011;7631;52.088;5.088;2023-07-29T00:18:27;1.00;;;1.00;;
15063;SDS011;7631;52.088;5.088;2023-07-29T00:20:52;0.90;;;0.90;;
15063;SDS011;7631;52.088;5.088;2023-07-29T00:23:18;1.70;;;1.20;;
15063;SDS011;7631;52.088;5.088;2023-07-29T00:25:46;0.80;;;0.80;;
15063;SDS011;7631;52.088;5.088;2023-07-29T00:28:12;1.23;;;0.90;;
15063;SDS011;7631;52.088;5.088;2023-07-29T00:30:37;1.00;;;1.00;;
15063;SDS011;7631;52.088;5.088;2023-07-29T00:33:02;1.30;;;0.90;;
15063;SDS011;7631;52.088;5.088;2023-07-29T00:35:28;1.15;;;1.00;;
15063;SDS011;7631;52.088;5.088;2023-07-29T00:37:53;1.00;;;0.90;;
15063;SDS011;7631;52.088;5.088;2023-07-29T00:40:22;1.20;;;0.90;;
15063;SDS011;7631;52.088;5.088;2023-07-29T00:42:47;0.88;;;0.88;;
15063;SDS011;7631;52.088;5.088;2023-07-29T00:45:13;0.95;;;0.80;;
15063;SDS011;7631;52.088;5.088;2023-07-29T00:47:38;1.33;;;1.20;;
15063;SDS011;7631;52.088;5.088;2023-07-29T00:50:04;1.00;;;0.90;;
15063;SDS011;7631;52.088;5.088;2023-07-29T00:52:30;1.40;;;0.90;;
15063;SDS011;7631;52.088;5.088;2023-07-29T00:54:57;0.93;;;0.83;;
15063;SDS011;7631;52.088;5.088;2023-07-29T00:57:23;1.00;;;0.73;;
15063;SDS011;7631;52.088;5.088;2023-07-29T00:59:50;1.10;;;1.00;;
15063;SDS011;7631;52.088;5.088;2023-07-29T01:02:15;1.37;;;1.00;;
15063;SDS011;7631;52.088;5.088;2023-07-29T01:04:40;0.87;;;0.83;;
15063;SDS011;7631;52.088;5.088;2023-07-29T01:14:36;1.13;;;0.90;;
15063;SDS011;7631;52.088;5.088;2023-07-29T01:17:04;1.10;;;1.00;;
15063;SDS011;7631;52.088;5.088;2023-07-29T01:22:16;1.17;;;0.90;;
15063;SDS011;7631;52.088;5.088;2023-07-29T01:24:42;1.17;;;0.97;;
15063;SDS011;7631;52.088;5.088;2023-07-29T01:27:07;0.87;;;0.87;;
15063;SDS011;7631;52.088;5.088;2023-07-29T01:29:32;0.90;;;0.90;;
15063;SDS011;7631;52.088;5.088;2023-07-29T01:32:00;0.80;;;0.80;;
15063;SDS011;7631;52.088;5.088;2023-07-29T01:34:29;1.70;;;0.90;;
15063;SDS011;7631;52.088;5.088;2023-07-29T01:36:54;1.20;;;0.90;;
15063;SDS011;7631;52.088;5.088;2023-07-29T01:39:22;0.90;;;0.90;;
15063;SDS011;7631;52.088;5.088;2023-07-29T01:41:48;1.00;;;1.00;;
15063;SDS011;7631;52.088;5.088;2023-07-29T01:44:14;1.00;;;0.90;;
15063;SDS011;7631;52.088;5.088;2023-07-29T01:46:40;0.93;;;0.93;;
15063;SDS011;7631;52.088;5.088;2023-07-29T01:49:05;0.80;;;0.70;;
15063;SDS011;7631;52.088;5.088;2023-07-29T01:51:30;0.80;;;0.80;;
15063;SDS011;7631;52.088;5.088;2023-07-29T01:53:55;1.37;;;0.80;;
15063;SDS011;7631;52.088;5.088;2023-07-29T01:56:21;1.00;;;0.90;;
15063;SDS011;7631;52.088;5.088;2023-07-29T01:58:46;1.10;;;1.00;;
15063;SDS011;7631;52.088;5.088;2023-07-29T02:01:12;1.40;;;0.90;;
15063;SDS011;7631;52.088;5.088;2023-07-29T02:03:37;0.80;;;0.80;;
15063;SDS011;7631;52.088;5.088;2023-07-29T02:06:02;0.93;;;0.90;;
15063;SDS011;7631;52.088;5.088;2023-07-29T02:08:28;0.83;;;0.83;;
15063;SDS011;7631;52.088;5.088;2023-07-29T02:10:53;1.50;;;1.30;;
15063;SDS011;7631;52.088;5.088;2023-07-29T02:13:19;0.80;;;0.80;;
15063;SDS011;7631;52.088;5.088;2023-07-29T02:15:45;1.00;;;0.80;;
15063;SDS011;7631;52.088;5.088;2023-07-29T02:18:10;1.87;;;1.00;;
15063;SDS011;7631;52.088;5.088;2023-07-29T02:20:35;1.27;;;0.83;;
15063;SDS011;7631;52.088;5.088;2023-07-29T02:23:00;0.77;;;0.77;;
15063;SDS011;7631;52.088;5.088;2023-07-29T02:25:26;0.80;;;0.80;;
15063;SDS011;7631;52.088;5.088;2023-07-29T02:27:51;1.73;;;1.00;;
15063;SDS011;7631;52.088;5.088;2023-07-29T02:30:16;1.43;;;0.80;;
15063;SDS011;7631;52.088;5.088;2023-07-29T02:32:41;1.63;;;0.90;;
15063;SDS011;7631;52.088;5.088;2023-07-29T02:35:07;1.03;;;0.90;;
15063;SDS011;7631;52.088;5.088;2023-07-29T02:37:32;1.63;;;1.13;;
15063;SDS011;7631;52.088;5.088;2023-07-29T02:39:57;1.10;;;1.00;;
15063;SDS011;7631;52.088;5.088;2023-07-29T02:42:23;1.13;;;1.00;;
15063;SDS011;7631;52.088;5.088;2023-07-29T02:44:48;1.40;;;1.00;;
15063;SDS011;7631;52.088;5.088;2023-07-29T02:47:13;1.10;;;0.90;;
15063;SDS011;7631;52.088;5.088;2023-07-29T02:49:38;1.20;;;0.90;;
15063;SDS011;7631;52.088;5.088;2023-07-29T02:52:03;1.20;;;1.10;;
15063;SDS011;7631;52.088;5.088;2023-07-29T02:54:29;1.47;;;0.93;;
15063;SDS011;7631;52.088;5.088;2023-07-29T02:56:54;1.43;;;1.10;;
15063;SDS011;7631;52.088;5.088;2023-07-29T02:59:19;1.93;;;0.90;;
15063;SDS011;7631;52.088;5.088;2023-07-29T03:01:45;1.73;;;1.00;;
15063;SDS011;7631;52.088;5.088;2023-07-29T03:04:10;1.20;;;1.00;;
15063;SDS011;7631;52.088;5.088;2023-07-29T03:06:38;1.80;;;1.07;;
15063;SDS011;7631;52.088;5.088;2023-07-29T03:09:03;1.43;;;1.03;;
15063;SDS011;7631;52.088;5.088;2023-07-29T03:11:28;1.10;;;0.90;;
15063;SDS011;7631;52.088;5.088;2023-07-29T03:13:53;1.17;;;0.80;;
15063;SDS011;7631;52.088;5.088;2023-07-29T03:16:19;0.90;;;0.80;;
15063;SDS011;7631;52.088;5.088;2023-07-29T03:18:44;1.10;;;0.90;;
15063;SDS011;7631;52.088;5.088;2023-07-29T03:21:10;1.10;;;1.00;;
15063;SDS011;7631;52.088;5.088;2023-07-29T03:23:36;1.10;;;0.90;;
15063;SDS011;7631;52.088;5.088;2023-07-29T03:26:02;0.93;;;0.90;;
15063;SDS011;7631;52.088;5.088;2023-07-29T03:28:30;1.03;;;0.93;;
15063;SDS011;7631;52.088;5.088;2023-07-29T03:30:55;1.33;;;1.20;;
15063;SDS011;7631;52.088;5.088;2023-07-29T03:33:21;0.80;;;0.80;;
15063;SDS011;7631;52.088;5.088;2023-07-29T03:35:46;0.70;;;0.57;;
15063;SDS011;7631;52.088;5.088;2023-07-29T03:38:12;1.33;;;1.07;;
15063;SDS011;7631;52.088;5.088;2023-07-29T03:40:38;0.97;;;0.80;;
15063;SDS011;7631;52.088;5.088;2023-07-29T03:43:03;1.40;;;0.70;;
15063;SDS011;7631;52.088;5.088;2023-07-29T03:45:29;0.70;;;0.70;;
15063;SDS011;7631;52.088;5.088;2023-07-29T03:47:54;0.70;;;0.70;;
15063;SDS011;7631;52.088;5.088;2023-07-29T03:50:20;0.80;;;0.73;;
15063;SDS011;7631;52.088;5.088;2023-07-29T03:52:45;0.80;;;0.80;;
15063;SDS011;7631;52.088;5.088;2023-07-29T03:55:11;0.90;;;0.90;;
15063;SDS011;7631;52.088;5.088;2023-07-29T03:57:36;0.93;;;0.80;;
15063;SDS011;7631;52.088;5.088;2023-07-29T04:00:01;1.40;;;0.80;;
15063;SDS011;7631;52.088;5.088;2023-07-29T04:02:26;1.87;;;0.97;;
15063;SDS011;7631;52.088;5.088;2023-07-29T04:04:52;0.80;;;0.80;;
15063;SDS011;7631;52.088;5.088;2023-07-29T04:07:17;0.80;;;0.80;;
15063;SDS011;7631;52.088;5.088;2023-07-29T04:09:42;1.27;;;1.10;;
15063;SDS011;7631;52.088;5.088;2023-07-29T04:12:08;0.87;;;0.83;;
15063;SDS011;7631;52.088;5.088;2023-07-29T04:14:34;0.93;;;0.93;;
15063;SDS011;7631;52.088;5.088;2023-07-29T04:16:59;0.73;;;0.73;;
15063;SDS011;7631;52.088;5.088;2023-07-29T04:19:24;0.90;;;0.80;;
15063;SDS011;7631;52.088;5.088;2023-07-29T04:21:49;0.90;;;0.80;;
15063;SDS011;7631;52.088;5.088;2023-07-29T04:24:16;1.10;;;1.00;;
15063;SDS011;7631;52.088;5.088;2023-07-29T04:26:41;0.80;;;0.80;;
15063;SDS011;7631;52.088;5.088;2023-07-29T04:29:06;1.10;;;1.00;;
15063;SDS011;7631;52.088;5.088;2023-07-29T04:31:31;1.20;;;1.00;;
15063;SDS011;7631;52.088;5.088;2023-07-29T04:33:57;0.97;;;0.80;;
15063;SDS011;7631;52.088;5.088;2023-07-29T04:36:22;1.07;;;0.93;;
15063;SDS011;7631;52.088;5.088;2023-07-29T04:38:47;1.10;;;1.00;;
15063;SDS011;7631;52.088;5.088;2023-07-29T04:41:12;1.23;;;1.00;;
15063;SDS011;7631;52.088;5.088;2023-07-29T04:43:38;0.70;;;0.70;;
15063;SDS011;7631;52.088;5.088;2023-07-29T04:46:06;1.10;;;1.00;;
15063;SDS011;7631;52.088;5.088;2023-07-29T04:48:31;1.00;;;0.83;;
15063;SDS011;7631;52.088;5.088;2023-07-29T04:50:56;1.30;;;0.87;;
15063;SDS011;7631;52.088;5.088;2023-07-29T04:53:22;1.60;;;0.93;;
15063;SDS011;7631;52.088;5.088;2023-07-29T04:55:47;1.07;;;0.97;;
15063;SDS011;7631;52.088;5.088;2023-07-29T04:58:12;1.13;;;1.00;;
15063;SDS011;7631;52.088;5.088;2023-07-29T05:00:37;1.10;;;1.00;;
15063;SDS011;7631;52.088;5.088;2023-07-29T05:03:03;1.53;;;1.10;;
15063;SDS011;7631;52.088;5.088;2023-07-29T05:05:28;1.37;;;1.00;;
15063;SDS011;7631;52.088;5.088;2023-07-29T05:07:53;1.30;;;1.07;;
15063;SDS011;7631;52.088;5.088;2023-07-29T05:10:18;1.30;;;1.20;;
15063;SDS011;7631;52.088;5.088;2023-07-29T05:12:44;1.20;;;1.10;;
15063;SDS011;7631;52.088;5.088;2023-07-29T05:15:09;1.20;;;1.10;;
15063;SDS011;7631;52.088;5.088;2023-07-29T05:17:35;1.40;;;1.20;;
15063;SDS011;7631;52.088;5.088;2023-07-29T05:20:00;1.30;;;1.20;;
15063;SDS011;7631;52.088;5.088;2023-07-29T05:22:25;1.30;;;1.10;;
15063;SDS011;7631;52.088;5.088;2023-07-29T05:24:51;2.60;;;1.50;;
15063;SDS011;7631;52.088;5.088;2023-07-29T05:27:16;1.43;;;1.10;;
15063;SDS011;7631;52.088;5.088;2023-07-29T05:29:41;1.07;;;0.97;;
15063;SDS011;7631;52.088;5.088;2023-07-29T05:32:07;1.10;;;0.90;;
15063;SDS011;7631;52.088;5.088;2023-07-29T05:34:32;1.43;;;1.30;;
15063;SDS011;7631;52.088;5.088;2023-07-29T05:36:57;1.57;;;1.10;;
15063;SDS011;7631;52.088;5.088;2023-07-29T05:39:23;2.07;;;1.37;;
15063;SDS011;7631;52.088;5.088;2023-07-29T05:41:49;1.50;;;1.20;;
15063;SDS011;7631;52.088;5.088;2023-07-29T05:44:14;1.23;;;1.10;;
15063;SDS011;7631;52.088;5.088;2023-07-29T05:46:40;1.30;;;1.10;;
15063;SDS011;7631;52.088;5.088;2023-07-29T05:49:05;1.10;;;1.00;;
15063;SDS011;7631;52.088;5.088;2023-07-29T05:51:30;1.17;;;1.07;;
15063;SDS011;7631;52.088;5.088;2023-07-29T05:53:55;1.30;;;1.10;;
15063;SDS011;7631;52.088;5.088;2023-07-29T05:56:21;1.70;;;1.50;;
15063;SDS011;7631;52.088;5.088;2023-07-29T05:58:46;1.07;;;0.97;;
15063;SDS011;7631;52.088;5.088;2023-07-29T06:01:11;1.97;;;1.47;;
15063;SDS011;7631;52.088;5.088;2023-07-29T06:03:37;1.57;;;1.47;;
15063;SDS011;7631;52.088;5.088;2023-07-29T06:06:02;1.60;;;1.40;;
15063;SDS011;7631;52.088;5.088;2023-07-29T06:08:27;1.90;;;1.60;;
15063;SDS011;7631;52.088;5.088;2023-07-29T06:10:59;2.10;;;1.60;;
15063;SDS011;7631;52.088;5.088;2023-07-29T06:13:24;1.47;;;1.30;;
15063;SDS011;7631;52.088;5.088;2023-07-29T06:15:49;2.33;;;1.60;;
15063;SDS011;7631;52.088;5.088;2023-07-29T06:18:15;1.60;;;1.50;;
15063;SDS011;7631;52.088;5.088;2023-07-29T06:20:40;2.17;;;1.70;;
15063;SDS011;7631;52.088;5.088;2023-07-29T06:23:05;2.20;;;1.30;;
15063;SDS011;7631;52.088;5.088;2023-07-29T06:25:31;1.90;;;1.57;;
15063;SDS011;7631;52.088;5.088;2023-07-29T06:27:56;1.83;;;1.33;;
15063;SDS011;7631;52.088;5.088;2023-07-29T06:30:23;1.53;;;1.43;;
15063;SDS011;7631;52.088;5.088;2023-07-29T06:32:48;1.90;;;1.60;;
15063;SDS011;7631;52.088;5.088;2023-07-29T06:35:13;2.47;;;1.57;;
15063;SDS011;7631;52.088;5.088;2023-07-29T06:37:39;2.30;;;1.60;;
15063;SDS011;7631;52.088;5.088;2023-07-29T06:40:04;1.80;;;1.33;;
15063;SDS011;7631;52.088;5.088;2023-07-29T06:42:30;2.10;;;1.50;;
15063;SDS011;7631;52.088;5.088;2023-07-29T06:44:55;2.90;;;2.07;;
15063;SDS011;7631;52.088;5.088;2023-07-29T06:47:21;1.20;;;1.07;;
15063;SDS011;7631;52.088;5.088;2023-07-29T06:49:46;2.20;;;1.63;;
15063;SDS011;7631;52.088;5.088;2023-07-29T06:52:12;1.70;;;1.50;;
15063;SDS011;7631;52.088;5.088;2023-07-29T06:54:37;1.63;;;1.47;;
15063;SDS011;7631;52.088;5.088;2023-07-29T06:57:02;1.50;;;1.30;;
15063;SDS011;7631;52.088;5.088;2023-07-29T06:59:30;2.10;;;1.80;;
15063;SDS011;7631;52.088;5.088;2023-07-29T07:01:56;1.87;;;1.70;;
15063;SDS011;7631;52.088;5.088;2023-07-29T07:04:21;1.50;;;1.40;;
15063;SDS011;7631;52.088;5.088;2023-07-29T07:06:46;2.10;;;1.80;;
15063;SDS011;7631;52.088;5.088;2023-07-29T07:09:11;2.00;;;1.30;;
15063;SDS011;7631;52.088;5.088;2023-07-29T07:11:37;1.93;;;1.53;;
15063;SDS011;7631;52.088;5.088;2023-07-29T07:14:02;2.00;;;1.67;;
15063;SDS011;7631;52.088;5.088;2023-07-29T07:16:27;2.40;;;1.73;;
15063;SDS011;7631;52.088;5.088;2023-07-29T07:18:55;1.40;;;1.30;;
15063;SDS011;7631;52.088;5.088;2023-07-29T07:21:20;2.47;;;1.60;;
15063;SDS011;7631;52.088;5.088;2023-07-29T07:23:46;3.43;;;1.60;;
15063;SDS011;7631;52.088;5.088;2023-07-29T07:26:11;2.40;;;1.60;;
15063;SDS011;7631;52.088;5.088;2023-07-29T07:28:36;2.07;;;1.67;;
15063;SDS011;7631;52.088;5.088;2023-07-29T07:31:02;1.93;;;1.60;;
15063;SDS011;7631;52.088;5.088;2023-07-29T07:33:27;1.53;;;1.30;;
15063;SDS011;7631;52.088;5.088;2023-07-29T07:35:52;2.07;;;1.70;;
15063;SDS011;7631;52.088;5.088;2023-07-29T07:38:17;2.20;;;1.50;;
15063;SDS011;7631;52.088;5.088;2023-07-29T07:40:43;1.73;;;1.40;;
15063;SDS011;7631;52.088;5.088;2023-07-29T07:43:16;2.00;;;1.30;;
15063;SDS011;7631;52.088;5.088;2023-07-29T07:45:42;1.97;;;1.60;;
15063;SDS011;7631;52.088;5.088;2023-07-29T07:48:07;2.27;;;1.80;;
15063;SDS011;7631;52.088;5.088;2023-07-29T07:50:35;2.03;;;1.53;;
15063;SDS011;7631;52.088;5.088;2023-07-29T07:53:00;1.60;;;1.50;;
15063;SDS011;7631;52.088;5.088;2023-07-29T07:55:25;2.23;;;1.77;;
15063;SDS011;7631;52.088;5.088;2023-07-29T07:57:51;2.10;;;1.83;;
15063;SDS011;7631;52.088;5.088;2023-07-29T08:00:16;3.13;;;1.87;;
15063;SDS011;7631;52.088;5.088;2023-07-29T08:02:43;1.95;;;1.60;;
15063;SDS011;7631;52.088;5.088;2023-07-29T08:05:08;1.57;;;1.30;;
15063;SDS011;7631;52.088;5.088;2023-07-29T08:07:34;1.80;;;1.70;;
15063;SDS011;7631;52.088;5.088;2023-07-29T08:09:59;1.83;;;1.73;;
15063;SDS011;7631;52.088;5.088;2023-07-29T08:12:24;1.50;;;1.40;;
15063;SDS011;7631;52.088;5.088;2023-07-29T08:14:49;1.80;;;1.50;;
15063;SDS011;7631;52.088;5.088;2023-07-29T08:17:15;1.83;;;1.57;;
15063;SDS011;7631;52.088;5.088;2023-07-29T08:19:40;2.20;;;1.60;;
15063;SDS011;7631;52.088;5.088;2023-07-29T08:22:05;1.93;;;1.73;;
15063;SDS011;7631;52.088;5.088;2023-07-29T08:24:31;1.90;;;1.80;;
15063;SDS011;7631;52.088;5.088;2023-07-29T08:26:56;2.20;;;1.70;;
15063;SDS011;7631;52.088;5.088;2023-07-29T08:29:21;1.80;;;1.70;;
15063;SDS011;7631;52.088;5.088;2023-07-29T08:31:47;1.73;;;1.60;;
15063;SDS011;7631;52.088;5.088;2023-07-29T08:34:12;1.50;;;1.40;;
15063;SDS011;7631;52.088;5.088;2023-07-29T08:36:37;2.20;;;1.43;;
15063;SDS011;7631;52.088;5.088;2023-07-29T08:39:03;2.30;;;1.60;;
15063;SDS011;7631;52.088;5.088;2023-07-29T08:41:32;2.70;;;1.47;;
15063;SDS011;7631;52.088;5.088;2023-07-29T08:46:29;2.53;;;1.70;;
15063;SDS011;7631;52.088;5.088;2023-07-29T08:48:54;1.67;;;1.57;;
15063;SDS011;7631;52.088;5.088;2023-07-29T08:51:20;2.40;;;1.60;;
15063;SDS011;7631;52.088;5.088;2023-07-29T08:53:46;2.03;;;1.70;;
15063;SDS011;7631;52.088;5.088;2023-07-29T08:56:12;1.60;;;1.50;;
15063;SDS011;7631;52.088;5.088;2023-07-29T08:58:37;1.97;;;1.70;;
15063;SDS011;7631;52.088;5.088;2023-07-29T09:01:05;2.07;;;1.80;;
15063;SDS011;7631;52.088;5.088;2023-07-29T09:03:31;1.90;;;1.47;;
15063;SDS011;7631;52.088;5.088;2023-07-29T09:05:56;1.90;;;1.63;;
15063;SDS011;7631;52.088;5.088;2023-07-29T09:08:22;2.33;;;1.80;;
15063;SDS011;7631;52.088;5.088;2023-07-29T09:10:48;2.25;;;2.00;;
15063;SDS011;7631;52.088;5.088;2023-07-29T09:13:14;2.95;;;1.95;;
15063;SDS011;7631;52.088;5.088;2023-07-29T09:15:39;1.80;;;1.70;;
15063;SDS011;7631;52.088;5.088;2023-07-29T09:18:10;2.05;;;1.60;;
15063;SDS011;7631;52.088;5.088;2023-07-29T09:20:36;2.60;;;1.73;;
15063;SDS011;7631;52.088;5.088;2023-07-29T09:23:01;2.58;;;1.75;;
15063;SDS011;7631;52.088;5.088;2023-07-29T09:25:27;2.78;;;1.88;;
15063;SDS011;7631;52.088;5.088;2023-07-29T09:27:52;1.60;;;1.35;;
15063;SDS011;7631;52.088;5.088;2023-07-29T09:30:18;2.00;;;1.80;;
15063;SDS011;7631;52.088;5.088;2023-07-29T09:32:43;2.55;;;1.60;;
15063;SDS011;7631;52.088;5.088;2023-07-29T09:35:12;2.07;;;1.90;;
15063;SDS011;7631;52.088;5.088;2023-07-29T09:37:38;2.20;;;1.67;;
15063;SDS011;7631;52.088;5.088;2023-07-29T09:40:03;2.25;;;1.83;;
15063;SDS011;7631;52.088;5.088;2023-07-29T09:42:29;2.55;;;1.80;;
15063;SDS011;7631;52.088;5.088;2023-07-29T09:44:54;2.28;;;1.60;;
15063;SDS011;7631;52.088;5.088;2023-07-29T09:47:20;3.55;;;2.15;;
15063;SDS011;7631;52.088;5.088;2023-07-29T09:49:46;3.03;;;1.90;;
15063;SDS011;7631;52.088;5.088;2023-07-29T09:52:11;2.60;;;2.00;;
15063;SDS011;7631;52.088;5.088;2023-07-29T09:54:37;2.22;;;1.90;;
15063;SDS011;7631;52.088;5.088;2023-07-29T09:57:02;2.72;;;1.80;;
15063;SDS011;7631;52.088;5.088;2023-07-29T09:59:27;2.63;;;1.75;;
15063;SDS011;7631;52.088;5.088;2023-07-29T10:01:53;2.83;;;2.13;;
15063;SDS011;7631;52.088;5.088;2023-07-29T10:04:18;2.45;;;1.98;;
15063;SDS011;7631;52.088;5.088;2023-07-29T10:06:44;2.37;;;2.07;;
15063;SDS011;7631;52.088;5.088;2023-07-29T10:09:11;1.95;;;1.85;;
15063;SDS011;7631;52.088;5.088;2023-07-29T10:11:37;2.10;;;1.90;;
15063;SDS011;7631;52.088;5.088;2023-07-29T10:14:02;2.22;;;1.98;;
15063;SDS011;7631;52.088;5.088;2023-07-29T10:16:28;2.17;;;1.98;;
15063;SDS011;7631;52.088;5.088;2023-07-29T10:18:53;2.47;;;1.90;;
15063;SDS011;7631;52.088;5.088;2023-07-29T10:21:19;2.30;;;2.10;;
15063;SDS011;7631;52.088;5.088;2023-07-29T10:23:46;3.08;;;2.17;;
15063;SDS011;7631;52.088;5.088;2023-07-29T10:26:14;1.90;;;1.80;;
15063;SDS011;7631;52.088;5.088;2023-07-29T10:28:41;2.90;;;2.15;;
15063;SDS011;7631;52.088;5.088;2023-07-29T10:31:09;1.95;;;1.80;;
15063;SDS011;7631;52.088;5.088;2023-07-29T10:33:35;2.42;;;1.92;;
15063;SDS011;7631;52.088;5.088;2023-07-29T10:36:01;2.55;;;1.85;;
15063;SDS011;7631;52.088;5.088;2023-07-29T10:38:27;1.90;;;1.80;;
15063;SDS011;7631;52.088;5.088;2023-07-29T10:40:53;2.55;;;1.98;;
15063;SDS011;7631;52.088;5.088;2023-07-29T10:43:35;2.58;;;2.30;;
15063;SDS011;7631;52.088;5.088;2023-07-29T10:53:47;2.58;;;1.90;;
15063;SDS011;7631;52.088;5.088;2023-07-29T10:56:13;1.98;;;1.83;;
15063;SDS011;7631;52.088;5.088;2023-07-29T10:58:38;2.45;;;1.67;;
15063;SDS011;7631;52.088;5.088;2023-07-29T11:01:12;1.70;;;1.60;;
15063;SDS011;7631;52.088;5.088;2023-07-29T11:03:37;2.17;;;1.77;;
15063;SDS011;7631;52.088;5.088;2023-07-29T11:06:04;1.77;;;1.67;;
15063;SDS011;7631;52.088;5.088;2023-07-29T11:08:30;1.40;;;1.30;;
15063;SDS011;7631;52.088;5.088;2023-07-29T11:13:27;1.58;;;1.48;;
15063;SDS011;7631;52.088;5.088;2023-07-29T11:15:53;1.38;;;1.27;;
15063;SDS011;7631;52.088;5.088;2023-07-29T11:18:19;1.73;;;1.30;;
15063;SDS011;7631;52.088;5.088;2023-07-29T11:20:45;1.08;;;1.02;;
15063;SDS011;7631;52.088;5.088;2023-07-29T11:23:10;1.75;;;1.33;;
15063;SDS011;7631;52.088;5.088;2023-07-29T11:25:36;1.42;;;1.30;;
15063;SDS011;7631;52.088;5.088;2023-07-29T11:28:01;1.35;;;1.25;;
15063;SDS011;7631;52.088;5.088;2023-07-29T11:30:27;1.17;;;1.08;;
15063;SDS011;7631;52.088;5.088;2023-07-29T11:32:54;1.60;;;1.50;;
15063;SDS011;7631;52.088;5.088;2023-07-29T11:35:20;1.35;;;1.25;;
15063;SDS011;7631;52.088;5.088;2023-07-29T11:37:46;1.30;;;1.20;;
15063;SDS011;7631;52.088;5.088;2023-07-29T11:40:19;1.45;;;1.20;;
15063;SDS011;7631;52.088;5.088;2023-07-29T11:42:45;1.33;;;1.17;;
15063;SDS011;7631;52.088;5.088;2023-07-29T11:45:11;2.05;;;1.40;;
15063;SDS011;7631;52.088;5.088;2023-07-29T11:47:36;1.38;;;1.27;;
15063;SDS011;7631;52.088;5.088;2023-07-29T11:50:05;1.30;;;1.20;;
15063;SDS011;7631;52.088;5.088;2023-07-29T11:52:34;1.77;;;1.40;;
15063;SDS011;7631;52.088;5.088;2023-07-29T11:55:00;1.60;;;1.42;;
15063;SDS011;7631;52.088;5.088;2023-07-29T11:57:27;1.25;;;1.15;;
15063;SDS011;7631;52.088;5.088;2023-07-29T11:59:52;1.23;;;1.10;;
15063;SDS011;7631;52.088;5.088;2023-07-29T12:02:18;3.35;;;1.42;;
15063;SDS011;7631;52.088;5.088;2023-07-29T12:04:44;1.15;;;1.10;;
15063;SDS011;7631;52.088;5.088;2023-07-29T12:07:12;1.35;;;1.13;;
15063;SDS011;7631;52.088;5.088;2023-07-29T12:09:37;1.20;;;1.10;;
15063;SDS011;7631;52.088;5.088;2023-07-29T12:12:03;1.05;;;0.95;;
15063;SDS011;7631;52.088;5.088;2023-07-29T12:14:29;1.55;;;1.45;;
15063;SDS011;7631;52.088;5.088;2023-07-29T12:16:54;1.20;;;1.08;;
15063;SDS011;7631;52.088;5.088;2023-07-29T12:19:22;1.30;;;1.20;;
15063;SDS011;7631;52.088;5.088;2023-07-29T12:21:48;1.08;;;1.00;;
15063;SDS011;7631;52.088;5.088;2023-07-29T12:24:14;1.85;;;1.55;;
15063;SDS011;7631;52.088;5.088;2023-07-29T12:26:40;1.52;;;1.15;;
15063;SDS011;7631;52.088;5.088;2023-07-29T12:29:12;1.55;;;1.23;;
15063;SDS011;7631;52.088;5.088;2023-07-29T12:31:38;1.20;;;1.05;;
15063;SDS011;7631;52.088;5.088;2023-07-29T12:34:03;1.08;;;1.05;;
15063;SDS011;7631;52.088;5.088;2023-07-29T12:39:31;1.58;;;1.20;;
15063;SDS011;7631;52.088;5.088;2023-07-29T12:41:58;1.30;;;1.20;;
15063;SDS011;7631;52.088;5.088;2023-07-29T12:44:23;1.42;;;1.20;;
15063;SDS011;7631;52.088;5.088;2023-07-29T12:46:49;1.23;;;1.10;;
15063;SDS011;7631;52.088;5.088;2023-07-29T12:49:14;1.40;;;1.13;;
15063;SDS011;7631;52.088;5.088;2023-07-29T12:51:40;1.30;;;1.17;;
15063;SDS011;7631;52.088;5.088;2023-07-29T12:54:05;1.30;;;1.20;;
15063;SDS011;7631;52.088;5.088;2023-07-29T12:56:31;1.38;;;1.25;;
15063;SDS011;7631;52.088;5.088;2023-07-29T12:58:57;1.33;;;1.23;;
15063;SDS011;7631;52.088;5.088;2023-07-29T13:01:23;1.48;;;1.23;;
15063;SDS011;7631;52.088;5.088;2023-07-29T13:03:49;1.15;;;1.05;;
15063;SDS011;7631;52.088;5.088;2023-07-29T13:06:14;1.42;;;1.25;;
15063;SDS011;7631;52.088;5.088;2023-07-29T13:08:40;1.58;;;1.27;;
15063;SDS011;7631;52.088;5.088;2023-07-29T13:11:05;1.17;;;1.08;;
15063;SDS011;7631;52.088;5.088;2023-07-29T13:13:31;1.27;;;1.15;;
15063;SDS011;7631;52.088;5.088;2023-07-29T13:15:57;1.58;;;1.30;;
15063;SDS011;7631;52.088;5.088;2023-07-29T13:18:22;1.42;;;1.30;;
15063;SDS011;7631;52.088;5.088;2023-07-29T13:20:47;1.73;;;1.17;;
15063;SDS011;7631;52.088;5.088;2023-07-29T13:23:13;1.33;;;1.23;;
15063;SDS011;7631;52.088;5.088;2023-07-29T13:25:38;1.42;;;1.33;;
15063;SDS011;7631;52.088;5.088;2023-07-29T13:28:03;1.35;;;1.20;;
15063;SDS011;7631;52.088;5.088;2023-07-29T13:30:29;1.45;;;1.35;;
15063;SDS011;7631;52.088;5.088;2023-07-29T13:32:54;1.38;;;1.27;;
15063;SDS011;7631;52.088;5.088;2023-07-29T13:35:19;1.50;;;1.30;;
15063;SDS011;7631;52.088;5.088;2023-07-29T13:37:45;1.40;;;1.30;;
15063;SDS011;7631;52.088;5.088;2023-07-29T13:40:10;0.90;;;0.90;;
15063;SDS011;7631;52.088;5.088;2023-07-29T13:42:35;1.92;;;1.45;;
15063;SDS011;7631;52.088;5.088;2023-07-29T13:45:02;1.42;;;1.33;;
15063;SDS011;7631;52.088;5.088;2023-07-29T13:47:27;1.73;;;1.50;;
15063;SDS011;7631;52.088;5.088;2023-07-29T13:49:52;1.55;;;1.27;;
15063;SDS011;7631;52.088;5.088;2023-07-29T13:52:18;1.33;;;1.23;;
15063;SDS011;7631;52.088;5.088;2023-07-29T13:54:43;1.45;;;1.20;;
15063;SDS011;7631;52.088;5.088;2023-07-29T13:57:08;1.08;;;1.00;;
15063;SDS011;7631;52.088;5.088;2023-07-29T13:59:35;1.45;;;1.30;;
15063;SDS011;7631;52.088;5.088;2023-07-29T14:02:00;1.38;;;1.25;;
15063;SDS011;7631;52.088;5.088;2023-07-29T14:04:25;1.40;;;1.27;;
15063;SDS011;7631;52.088;5.088;2023-07-29T14:06:51;1.40;;;1.30;;
15063;SDS011;7631;52.088;5.088;2023-07-29T14:09:16;1.38;;;1.25;;
15063;SDS011;7631;52.088;5.088;2023-07-29T14:11:41;1.70;;;1.60;;
15063;SDS011;7631;52.088;5.088;2023-07-29T14:14:07;1.45;;;1.35;;
15063;SDS011;7631;52.088;5.088;2023-07-29T14:16:32;2.35;;;1.42;;
15063;SDS011;7631;52.088;5.088;2023-07-29T14:18:57;1.48;;;1.38;;
15063;SDS011;7631;52.088;5.088;2023-07-29T14:21:23;2.00;;;1.30;;
15063;SDS011;7631;52.088;5.088;2023-07-29T14:23:48;2.35;;;1.23;;
15063;SDS011;7631;52.088;5.088;2023-07-29T14:26:13;1.30;;;1.20;;
15063;SDS011;7631;52.088;5.088;2023-07-29T14:28:38;1.17;;;1.02;;
15063;SDS011;7631;52.088;5.088;2023-07-29T14:31:04;1.33;;;1.23;;
15063;SDS011;7631;52.088;5.088;2023-07-29T14:33:29;1.33;;;1.10;;
15063;SDS011;7631;52.088;5.088;2023-07-29T14:35:54;1.30;;;1.20;;
15063;SDS011;7631;52.088;5.088;2023-07-29T14:38:20;2.03;;;1.13;;
15063;SDS011;7631;52.088;5.088;2023-07-29T14:40:47;1.65;;;1.20;;
15063;SDS011;7631;52.088;5.088;2023-07-29T14:43:13;2.42;;;1.30;;
15063;SDS011;7631;52.088;5.088;2023-07-29T14:45:38;1.13;;;1.02;;
15063;SDS011;7631;52.088;5.088;2023-07-29T14:48:03;1.30;;;1.20;;
15063;SDS011;7631;52.088;5.088;2023-07-29T14:50:29;1.15;;;1.10;;
15063;SDS011;7631;52.088;5.088;2023-07-29T14:52:54;1.25;;;1.02;;
15063;SDS011;7631;52.088;5.088;2023-07-29T14:55:22;1.30;;;1.20;;
15063;SDS011;7631;52.088;5.088;2023-07-29T14:57:48;1.23;;;1.10;;
15063;SDS011;7631;52.088;5.088;2023-07-29T15:00:13;1.83;;;1.23;;
15063;SDS011;7631;52.088;5.088;2023-07-29T15:02:39;1.17;;;1.13;;
15063;SDS011;7631;52.088;5.088;2023-07-29T15:05:08;1.10;;;1.10;;
15063;SDS011;7631;52.088;5.088;2023-07-29T15:07:33;1.10;;;1.00;;
15063;SDS011;7631;52.088;5.088;2023-07-29T15:09:58;1.10;;;1.00;;
15063;SDS011;7631;52.088;5.088;2023-07-29T15:12:24;1.30;;;1.20;;
15063;SDS011;7631;52.088;5.088;2023-07-29T15:14:49;2.65;;;1.00;;
15063;SDS011;7631;52.088;5.088;2023-07-29T15:17:15;1.30;;;1.20;;